sensor_id;sensor_type;location;lat;lon;timestamp;temperature;humidity
14192;DHT22;7177;48.572;7.838;2023-04-15T00:00:13;7.20;99.90
14192;DHT22;7177;48.572;7.838;2023-04-15T00:02:40;7.20;99.90
14192;DHT22;7177;48.572;7.838;2023-04-15T00:05:06;7.20;99.90
14192;DHT22;7177;48.572;7.838;2023-04-15T00:07:31;7.30;99.90
14192;DHT22;7177;48.572;7.838;2023-04-15T00:09:57;7.30;99.90
14192;DHT22;7177;48.572;7.838;2023-04-15T00:12:24;7.30;99.90
14192;DHT22;7177;48.572;7.838;2023-04-15T00:14:49;7.20;99.90
14192;DHT22;7177;48.572;7.838;2023-04-15T00:17:15;7.00;99.90
14192;DHT22;7177;48.572;7.838;2023-04-15T00:19:41;6.70;99.90
14192;DHT22;7177;48.572;7.838;2023-04-15T00:22:07;6.60;99.90
14192;DHT22;7177;48.572;7.838;2023-04-15T00:24:32;6.40;99.90
14192;DHT22;7177;48.572;7.838;2023-04-15T00:26:58;6.30;99.90
14192;DHT22;7177;48.572;7.838;2023-04-15T00:29:24;6.40;99.90
14192;DHT22;7177;48.572;7.838;2023-04-15T00:31:50;6.50;99.90
14192;DHT22;7177;48.572;7.838;2023-04-15T00:34:15;6.50;99.90
14192;DHT22;7177;48.572;7.838;2023-04-15T00:36:41;6.50;99.90
14192;DHT22;7177;48.572;7.838;2023-04-15T00:39:06;6.60;99.90
14192;DHT22;7177;48.572;7.838;2023-04-15T00:41:32;6.70;99.90
14192;DHT22;7177;48.572;7.838;2023-04-15T00:43:59;6.70;99.90
14192;DHT22;7177;48.572;7.838;2023-04-15T00:46:26;6.70;99.90
14192;DHT22;7177;48.572;7.838;2023-04-15T00:48:53;6.70;99.90
14192;DHT22;7177;48.572;7.838;2023-04-15T00:51:19;6.60;99.90
14192;DHT22;7177;48.572;7.838;2023-04-15T00:53:45;6.50;99.90
14192;DHT22;7177;48.572;7.838;2023-04-15T00:56:10;6.50;99.90
14192;DHT22;7177;48.572;7.838;2023-04-15T00:58:36;6.50;99.90
14192;DHT22;7177;48.572;7.838;2023-04-15T01:01:02;6.50;99.90
14192;DHT22;7177;48.572;7.838;2023-04-15T01:03:29;6.50;99.90
14192;DHT22;7177;48.572;7.838;2023-04-15T01:05:55;6.50;99.90
14192;DHT22;7177;48.572;7.838;2023-04-15T01:08:26;6.50;99.90
14192;DHT22;7177;48.572;7.838;2023-04-15T01:10:53;6.40;99.90
14192;DHT22;7177;48.572;7.838;2023-04-15T01:13:21;6.30;99.90
14192;DHT22;7177;48.572;7.838;2023-04-15T01:15:47;6.10;99.90
14192;DHT22;7177;48.572;7.838;2023-04-15T01:18:13;5.90;99.90
14192;DHT22;7177;48.572;7.838;2023-04-15T01:20:39;5.80;99.90
14192;DHT22;7177;48.572;7.838;2023-04-15T01:23:05;5.70;99.90
14192;DHT22;7177;48.572;7.838;2023-04-15T01:25:32;5.60;99.90
14192;DHT22;7177;48.572;7.838;2023-04-15T01:27:58;5.60;99.90
14192;DHT22;7177;48.572;7.838;2023-04-15T01:30:24;5.60;99.90
14192;DHT22;7177;48.572;7.838;2023-04-15T01:32:51;5.60;99.90
14192;DHT22;7177;48.572;7.838;2023-04-15T01:35:17;5.60;99.90
14192;DHT22;7177;48.572;7.838;2023-04-15T01:37:42;5.60;99.90
14192;DHT22;7177;48.572;7.838;2023-04-15T01:40:09;5.60;99.90
14192;DHT22;7177;48.572;7.838;2023-04-15T01:42:35;5.70;99.90
14192;DHT22;7177;48.572;7.838;2023-04-15T01:45:02;5.60;99.90
14192;DHT22;7177;48.572;7.838;2023-04-15T01:47:27;5.70;99.90
14192;DHT22;7177;48.572;7.838;2023-04-15T01:49:53;5.60;99.90
14192;DHT22;7177;48.572;7.838;2023-04-15T01:52:18;5.60;99.90
14192;DHT22;7177;48.572;7.838;2023-04-15T01:54:44;5.60;99.90
14192;DHT22;7177;48.572;7.838;2023-04-15T01:57:10;5.70;99.90
14192;DHT22;7177;48.572;7.838;2023-04-15T01:59:35;5.70;99.90
14192;DHT22;7177;48.572;7.838;2023-04-15T02:02:01;5.70;99.90
14192;DHT22;7177;48.572;7.838;2023-04-15T02:04:27;5.60;99.90
14192;DHT22;7177;48.572;7.838;2023-04-15T02:06:52;5.40;99.90
14192;DHT22;7177;48.572;7.838;2023-04-15T02:09:18;5.40;99.90
14192;DHT22;7177;48.572;7.838;2023-04-15T02:11:45;5.30;99.90
14192;DHT22;7177;48.572;7.838;2023-04-15T02:14:10;5.30;99.90
14192;DHT22;7177;48.572;7.838;2023-04-15T02:16:36;5.40;99.90
14192;DHT22;7177;48.572;7.838;2023-04-15T02:19:02;5.40;99.90
14192;DHT22;7177;48.572;7.838;2023-04-15T02:23:55;5.40;99.90
14192;DHT22;7177;48.572;7.838;2023-04-15T02:26:21;5.40;99.90
14192;DHT22;7177;48.572;7.838;2023-04-15T02:28:48;5.40;99.90
14192;DHT22;7177;48.572;7.838;2023-04-15T02:31:15;5.10;99.90
14192;DHT22;7177;48.572;7.838;2023-04-15T02:33:41;5.10;99.90
14192;DHT22;7177;48.572;7.838;2023-04-15T02:36:07;5.10;99.90
14192;DHT22;7177;48.572;7.838;2023-04-15T02:38:34;5.10;99.90
14192;DHT22;7177;48.572;7.838;2023-04-15T02:41:00;5.10;99.90
14192;DHT22;7177;48.572;7.838;2023-04-15T02:43:25;5.10;99.90
14192;DHT22;7177;48.572;7.838;2023-04-15T02:45:51;5.00;99.90
14192;DHT22;7177;48.572;7.838;2023-04-15T02:48:16;5.00;99.90
14192;DHT22;7177;48.572;7.838;2023-04-15T02:50:45;5.00;99.90
14192;DHT22;7177;48.572;7.838;2023-04-15T02:53:11;4.90;99.90
14192;DHT22;7177;48.572;7.838;2023-04-15T02:55:37;4.90;99.90
14192;DHT22;7177;48.572;7.838;2023-04-15T02:58:03;4.90;99.90
14192;DHT22;7177;48.572;7.838;2023-04-15T03:03:01;5.00;99.90
14192;DHT22;7177;48.572;7.838;2023-04-15T03:05:26;5.00;99.90
14192;DHT22;7177;48.572;7.838;2023-04-15T03:07:52;5.10;99.90
14192;DHT22;7177;48.572;7.838;2023-04-15T03:10:18;5.10;99.90
14192;DHT22;7177;48.572;7.838;2023-04-15T03:12:44;5.20;99.90
14192;DHT22;7177;48.572;7.838;2023-04-15T03:15:10;5.20;99.90
14192;DHT22;7177;48.572;7.838;2023-04-15T03:17:35;5.20;99.90
14192;DHT22;7177;48.572;7.838;2023-04-15T03:20:02;5.20;99.90
14192;DHT22;7177;48.572;7.838;2023-04-15T03:22:29;5.20;99.90
14192;DHT22;7177;48.572;7.838;2023-04-15T03:24:55;5.20;99.90
14192;DHT22;7177;48.572;7.838;2023-04-15T03:27:21;5.10;99.90
14192;DHT22;7177;48.572;7.838;2023-04-15T03:29:46;5.10;99.90
14192;DHT22;7177;48.572;7.838;2023-04-15T03:32:13;5.00;99.90
14192;DHT22;7177;48.572;7.838;2023-04-15T03:34:40;4.60;99.90
14192;DHT22;7177;48.572;7.838;2023-04-15T03:37:05;4.60;99.90
14192;DHT22;7177;48.572;7.838;2023-04-15T03:39:31;4.70;99.90
14192;DHT22;7177;48.572;7.838;2023-04-15T03:41:57;4.70;99.90
14192;DHT22;7177;48.572;7.838;2023-04-15T03:44:25;4.80;99.90
14192;DHT22;7177;48.572;7.838;2023-04-15T03:46:50;4.70;99.90
14192;DHT22;7177;48.572;7.838;2023-04-15T03:49:16;4.70;99.90
14192;DHT22;7177;48.572;7.838;2023-04-15T03:51:41;4.60;99.90
14192;DHT22;7177;48.572;7.838;2023-04-15T03:54:07;4.60;99.90
14192;DHT22;7177;48.572;7.838;2023-04-15T03:56:33;4.50;99.90
14192;DHT22;7177;48.572;7.838;2023-04-15T03:58:58;4.50;99.90
14192;DHT22;7177;48.572;7.838;2023-04-15T04:01:24;4.40;99.90
14192;DHT22;7177;48.572;7.838;2023-04-15T04:03:49;4.50;99.90
14192;DHT22;7177;48.572;7.838;2023-04-15T04:06:15;4.60;99.90
14192;DHT22;7177;48.572;7.838;2023-04-15T04:08:41;4.60;99.90
14192;DHT22;7177;48.572;7.838;2023-04-15T04:11:06;4.70;99.90
14192;DHT22;7177;48.572;7.838;2023-04-15T04:13:32;4.70;99.90
14192;DHT22;7177;48.572;7.838;2023-04-15T04:15:57;4.80;99.90
14192;DHT22;7177;48.572;7.838;2023-04-15T04:18:23;4.80;99.90
14192;DHT22;7177;48.572;7.838;2023-04-15T04:20:48;4.80;99.90
14192;DHT22;7177;48.572;7.838;2023-04-15T04:23:14;4.90;99.90
14192;DHT22;7177;48.572;7.838;2023-04-15T04:25:39;4.80;99.90
14192;DHT22;7177;48.572;7.838;2023-04-15T04:28:05;4.80;99.90
14192;DHT22;7177;48.572;7.838;2023-04-15T04:30:31;4.80;99.90
14192;DHT22;7177;48.572;7.838;2023-04-15T04:32:57;4.80;99.90
14192;DHT22;7177;48.572;7.838;2023-04-15T04:35:22;4.80;99.90
14192;DHT22;7177;48.572;7.838;2023-04-15T04:37:48;4.90;99.90
14192;DHT22;7177;48.572;7.838;2023-04-15T04:40:14;4.90;99.90
14192;DHT22;7177;48.572;7.838;2023-04-15T04:42:39;4.80;99.90
14192;DHT22;7177;48.572;7.838;2023-04-15T04:45:05;4.80;99.90
14192;DHT22;7177;48.572;7.838;2023-04-15T04:47:31;4.80;99.90
14192;DHT22;7177;48.572;7.838;2023-04-15T04:49:57;5.00;99.90
14192;DHT22;7177;48.572;7.838;2023-04-15T04:52:22;5.10;99.90
14192;DHT22;7177;48.572;7.838;2023-04-15T04:54:48;5.10;99.90
14192;DHT22;7177;48.572;7.838;2023-04-15T04:57:13;5.20;99.90
14192;DHT22;7177;48.572;7.838;2023-04-15T04:59:39;5.40;99.90
14192;DHT22;7177;48.572;7.838;2023-04-15T05:02:06;5.30;99.90
14192;DHT22;7177;48.572;7.838;2023-04-15T05:04:31;5.40;99.90
14192;DHT22;7177;48.572;7.838;2023-04-15T05:06:57;5.80;99.90
14192;DHT22;7177;48.572;7.838;2023-04-15T05:09:23;6.40;99.90
14192;DHT22;7177;48.572;7.838;2023-04-15T05:11:49;6.70;99.90
14192;DHT22;7177;48.572;7.838;2023-04-15T05:14:14;6.80;99.90
14192;DHT22;7177;48.572;7.838;2023-04-15T05:16:40;6.70;99.90
14192;DHT22;7177;48.572;7.838;2023-04-15T05:19:06;6.20;99.90
14192;DHT22;7177;48.572;7.838;2023-04-15T05:21:32;6.20;99.90
14192;DHT22;7177;48.572;7.838;2023-04-15T05:23:57;6.20;99.90
14192;DHT22;7177;48.572;7.838;2023-04-15T05:26:23;6.10;99.90
14192;DHT22;7177;48.572;7.838;2023-04-15T05:31:15;6.00;99.90
14192;DHT22;7177;48.572;7.838;2023-04-15T05:33:40;6.00;99.90
14192;DHT22;7177;48.572;7.838;2023-04-15T05:36:06;6.00;99.90
14192;DHT22;7177;48.572;7.838;2023-04-15T05:38:31;6.00;99.90
14192;DHT22;7177;48.572;7.838;2023-04-15T05:40:57;6.00;99.90
14192;DHT22;7177;48.572;7.838;2023-04-15T05:43:23;6.00;99.90
14192;DHT22;7177;48.572;7.838;2023-04-15T05:45:48;6.00;99.90
14192;DHT22;7177;48.572;7.838;2023-04-15T05:48:14;6.10;99.90
14192;DHT22;7177;48.572;7.838;2023-04-15T05:50:40;6.10;99.90
14192;DHT22;7177;48.572;7.838;2023-04-15T05:53:07;6.30;99.90
14192;DHT22;7177;48.572;7.838;2023-04-15T05:55:32;6.30;99.90
14192;DHT22;7177;48.572;7.838;2023-04-15T05:57:58;6.40;99.90
14192;DHT22;7177;48.572;7.838;2023-04-15T06:00:23;6.20;99.90
14192;DHT22;7177;48.572;7.838;2023-04-15T06:02:49;6.30;99.90
14192;DHT22;7177;48.572;7.838;2023-04-15T06:05:14;6.30;99.90
14192;DHT22;7177;48.572;7.838;2023-04-15T06:07:40;6.30;99.90
14192;DHT22;7177;48.572;7.838;2023-04-15T06:10:08;6.30;99.90
14192;DHT22;7177;48.572;7.838;2023-04-15T06:12:33;6.30;99.90
14192;DHT22;7177;48.572;7.838;2023-04-15T06:14:59;6.40;99.90
14192;DHT22;7177;48.572;7.838;2023-04-15T06:17:25;6.40;99.90
14192;DHT22;7177;48.572;7.838;2023-04-15T06:19:50;6.40;99.90
14192;DHT22;7177;48.572;7.838;2023-04-15T06:22:20;6.50;99.90
14192;DHT22;7177;48.572;7.838;2023-04-15T06:24:47;6.60;99.90
14192;DHT22;7177;48.572;7.838;2023-04-15T06:29:38;6.60;99.90
14192;DHT22;7177;48.572;7.838;2023-04-15T06:32:04;6.60;99.90
14192;DHT22;7177;48.572;7.838;2023-04-15T06:34:29;6.70;99.90
14192;DHT22;7177;48.572;7.838;2023-04-15T06:36:55;6.80;99.90
14192;DHT22;7177;48.572;7.838;2023-04-15T06:39:21;6.80;99.90
14192;DHT22;7177;48.572;7.838;2023-04-15T06:41:46;6.90;99.90
14192;DHT22;7177;48.572;7.838;2023-04-15T06:44:12;7.10;99.90
14192;DHT22;7177;48.572;7.838;2023-04-15T06:46:37;7.10;99.90
14192;DHT22;7177;48.572;7.838;2023-04-15T06:49:03;7.20;99.90
14192;DHT22;7177;48.572;7.838;2023-04-15T06:51:29;7.20;99.90
14192;DHT22;7177;48.572;7.838;2023-04-15T06:53:55;7.40;99.90
14192;DHT22;7177;48.572;7.838;2023-04-15T06:56:21;7.30;99.90
14192;DHT22;7177;48.572;7.838;2023-04-15T06:58:47;7.40;99.90
14192;DHT22;7177;48.572;7.838;2023-04-15T07:01:13;7.60;99.90
14192;DHT22;7177;48.572;7.838;2023-04-15T07:03:38;7.60;99.90
14192;DHT22;7177;48.572;7.838;2023-04-15T07:06:04;8.10;99.90
14192;DHT22;7177;48.572;7.838;2023-04-15T07:08:32;8.10;99.90
14192;DHT22;7177;48.572;7.838;2023-04-15T07:10:58;8.80;99.90
14192;DHT22;7177;48.572;7.838;2023-04-15T07:13:24;8.80;99.90
14192;DHT22;7177;48.572;7.838;2023-04-15T07:15:50;9.10;99.90
14192;DHT22;7177;48.572;7.838;2023-04-15T07:18:15;9.20;99.90
14192;DHT22;7177;48.572;7.838;2023-04-15T07:20:41;9.40;99.90
14192;DHT22;7177;48.572;7.838;2023-04-15T07:23:07;9.50;99.90
14192;DHT22;7177;48.572;7.838;2023-04-15T07:25:32;9.90;99.90
14192;DHT22;7177;48.572;7.838;2023-04-15T07:27:58;10.00;99.90
14192;DHT22;7177;48.572;7.838;2023-04-15T07:30:23;10.10;99.90
14192;DHT22;7177;48.572;7.838;2023-04-15T07:32:49;10.10;99.90
14192;DHT22;7177;48.572;7.838;2023-04-15T07:35:15;10.40;99.90
14192;DHT22;7177;48.572;7.838;2023-04-15T07:37:40;10.50;99.90
14192;DHT22;7177;48.572;7.838;2023-04-15T07:40:08;10.70;99.90
14192;DHT22;7177;48.572;7.838;2023-04-15T07:42:34;10.70;99.90
14192;DHT22;7177;48.572;7.838;2023-04-15T07:44:59;11.00;99.90
14192;DHT22;7177;48.572;7.838;2023-04-15T07:47:25;11.20;99.90
14192;DHT22;7177;48.572;7.838;2023-04-15T07:49:51;11.40;99.90
14192;DHT22;7177;48.572;7.838;2023-04-15T07:52:17;11.60;99.90
14192;DHT22;7177;48.572;7.838;2023-04-15T07:54:43;12.00;99.90
14192;DHT22;7177;48.572;7.838;2023-04-15T07:57:09;12.40;99.90
14192;DHT22;7177;48.572;7.838;2023-04-15T07:59:34;12.70;99.90
14192;DHT22;7177;48.572;7.838;2023-04-15T08:02:00;13.10;99.90
14192;DHT22;7177;48.572;7.838;2023-04-15T08:04:25;13.30;99.90
14192;DHT22;7177;48.572;7.838;2023-04-15T08:06:51;13.70;99.90
14192;DHT22;7177;48.572;7.838;2023-04-15T08:09:17;14.10;99.90
14192;DHT22;7177;48.572;7.838;2023-04-15T08:11:42;14.40;99.90
14192;DHT22;7177;48.572;7.838;2023-04-15T08:14:08;14.50;99.90
14192;DHT22;7177;48.572;7.838;2023-04-15T08:16:33;14.40;99.90
14192;DHT22;7177;48.572;7.838;2023-04-15T08:18:59;14.60;99.90
14192;DHT22;7177;48.572;7.838;2023-04-15T08:21:25;14.80;99.90
14192;DHT22;7177;48.572;7.838;2023-04-15T08:23:52;15.00;99.90
14192;DHT22;7177;48.572;7.838;2023-04-15T08:26:19;15.30;99.90
14192;DHT22;7177;48.572;7.838;2023-04-15T08:28:45;15.40;99.90
14192;DHT22;7177;48.572;7.838;2023-04-15T08:31:15;15.50;99.90
14192;DHT22;7177;48.572;7.838;2023-04-15T08:33:41;15.40;99.90
14192;DHT22;7177;48.572;7.838;2023-04-15T08:36:07;15.70;99.90
14192;DHT22;7177;48.572;7.838;2023-04-15T08:38:33;15.90;99.90
14192;DHT22;7177;48.572;7.838;2023-04-15T08:41:00;16.10;99.90
14192;DHT22;7177;48.572;7.838;2023-04-15T08:43:33;16.50;99.90
14192;DHT22;7177;48.572;7.838;2023-04-15T08:45:59;16.90;99.90
14192;DHT22;7177;48.572;7.838;2023-04-15T08:48:28;17.20;99.90
14192;DHT22;7177;48.572;7.838;2023-04-15T08:50:55;16.90;99.90
14192;DHT22;7177;48.572;7.838;2023-04-15T08:53:23;16.90;99.90
14192;DHT22;7177;48.572;7.838;2023-04-15T08:55:51;17.00;99.90
14192;DHT22;7177;48.572;7.838;2023-04-15T08:58:18;17.40;99.90
14192;DHT22;7177;48.572;7.838;2023-04-15T09:00:44;17.30;99.90
14192;DHT22;7177;48.572;7.838;2023-04-15T09:03:10;17.50;99.90
14192;DHT22;7177;48.572;7.838;2023-04-15T09:05:36;17.60;99.90
14192;DHT22;7177;48.572;7.838;2023-04-15T09:08:02;17.90;99.90
14192;DHT22;7177;48.572;7.838;2023-04-15T09:10:29;18.00;99.10
14192;DHT22;7177;48.572;7.838;2023-04-15T09:12:55;18.10;99.40
14192;DHT22;7177;48.572;7.838;2023-04-15T09:15:24;18.40;99.30
14192;DHT22;7177;48.572;7.838;2023-04-15T09:17:49;18.60;99.20
14192;DHT22;7177;48.572;7.838;2023-04-15T09:20:15;18.60;97.10
14192;DHT22;7177;48.572;7.838;2023-04-15T09:22:45;18.80;97.20
14192;DHT22;7177;48.572;7.838;2023-04-15T09:27:51;18.70;96.60
14192;DHT22;7177;48.572;7.838;2023-04-15T09:30:17;18.60;96.50
14192;DHT22;7177;48.572;7.838;2023-04-15T09:33:08;18.20;95.20
14192;DHT22;7177;48.572;7.838;2023-04-15T09:35:35;18.00;96.10
14192;DHT22;7177;48.572;7.838;2023-04-15T09:38:09;18.30;95.70
14192;DHT22;7177;48.572;7.838;2023-04-15T09:40:41;18.70;95.10
14192;DHT22;7177;48.572;7.838;2023-04-15T09:43:08;18.90;95.40
14192;DHT22;7177;48.572;7.838;2023-04-15T09:45:34;18.60;95.90
14192;DHT22;7177;48.572;7.838;2023-04-15T09:48:20;18.80;95.40
14192;DHT22;7177;48.572;7.838;2023-04-15T09:50:49;19.20;95.20
14192;DHT22;7177;48.572;7.838;2023-04-15T09:53:19;19.50;94.30
14192;DHT22;7177;48.572;7.838;2023-04-15T09:58:26;20.20;92.50
14192;DHT22;7177;48.572;7.838;2023-04-15T10:00:53;20.20;92.70
14192;DHT22;7177;48.572;7.838;2023-04-15T10:03:24;20.20;92.20
14192;DHT22;7177;48.572;7.838;2023-04-15T10:05:52;20.10;90.60
14192;DHT22;7177;48.572;7.838;2023-04-15T10:08:22;20.20;92.00
14192;DHT22;7177;48.572;7.838;2023-04-15T10:10:48;20.30;90.30
14192;DHT22;7177;48.572;7.838;2023-04-15T10:13:17;20.40;89.80
14192;DHT22;7177;48.572;7.838;2023-04-15T10:15:44;20.70;90.20
14192;DHT22;7177;48.572;7.838;2023-04-15T10:18:15;21.10;89.00
14192;DHT22;7177;48.572;7.838;2023-04-15T10:20:45;21.30;86.70
14192;DHT22;7177;48.572;7.838;2023-04-15T10:23:11;21.20;84.30
14192;DHT22;7177;48.572;7.838;2023-04-15T10:25:38;21.00;81.10
14192;DHT22;7177;48.572;7.838;2023-04-15T10:28:05;21.20;84.30
14192;DHT22;7177;48.572;7.838;2023-04-15T10:30:32;21.30;80.80
14192;DHT22;7177;48.572;7.838;2023-04-15T10:32:59;21.00;82.90
14192;DHT22;7177;48.572;7.838;2023-04-15T10:35:25;21.00;82.60
14192;DHT22;7177;48.572;7.838;2023-04-15T10:37:51;20.90;85.20
14192;DHT22;7177;48.572;7.838;2023-04-15T10:40:30;21.00;81.70
14192;DHT22;7177;48.572;7.838;2023-04-15T10:43:02;20.90;83.90
14192;DHT22;7177;48.572;7.838;2023-04-15T10:45:35;20.80;85.30
14192;DHT22;7177;48.572;7.838;2023-04-15T10:48:06;21.10;82.20
14192;DHT22;7177;48.572;7.838;2023-04-15T10:50:32;21.60;78.80
14192;DHT22;7177;48.572;7.838;2023-04-15T10:52:58;21.70;77.00
14192;DHT22;7177;48.572;7.838;2023-04-15T10:55:31;21.90;73.80
14192;DHT22;7177;48.572;7.838;2023-04-15T10:58:00;21.90;72.50
14192;DHT22;7177;48.572;7.838;2023-04-15T11:00:31;21.70;79.10
14192;DHT22;7177;48.572;7.838;2023-04-15T11:03:03;22.10;76.40
14192;DHT22;7177;48.572;7.838;2023-04-15T11:08:11;22.40;75.40
14192;DHT22;7177;48.572;7.838;2023-04-15T11:13:25;23.20;75.40
14192;DHT22;7177;48.572;7.838;2023-04-15T11:15:55;23.40;70.30
14192;DHT22;7177;48.572;7.838;2023-04-15T11:18:27;23.60;69.30
14192;DHT22;7177;48.572;7.838;2023-04-15T11:21:05;24.00;63.90
14192;DHT22;7177;48.572;7.838;2023-04-15T11:23:42;24.50;62.10
14192;DHT22;7177;48.572;7.838;2023-04-15T11:26:11;24.60;60.00
14192;DHT22;7177;48.572;7.838;2023-04-15T11:28:39;24.30;56.20
14192;DHT22;7177;48.572;7.838;2023-04-15T11:31:10;24.10;56.50
14192;DHT22;7177;48.572;7.838;2023-04-15T11:33:38;23.70;59.80
14192;DHT22;7177;48.572;7.838;2023-04-15T11:36:09;23.90;59.10
14192;DHT22;7177;48.572;7.838;2023-04-15T11:38:35;23.60;57.70
14192;DHT22;7177;48.572;7.838;2023-04-15T11:41:02;23.70;54.80
14192;DHT22;7177;48.572;7.838;2023-04-15T11:43:31;23.90;55.20
14192;DHT22;7177;48.572;7.838;2023-04-15T11:45:58;24.00;56.20
14192;DHT22;7177;48.572;7.838;2023-04-15T11:48:34;24.20;52.90
14192;DHT22;7177;48.572;7.838;2023-04-15T11:51:03;24.10;52.30
14192;DHT22;7177;48.572;7.838;2023-04-15T11:53:45;24.00;53.60
14192;DHT22;7177;48.572;7.838;2023-04-15T11:56:17;24.20;54.80
14192;DHT22;7177;48.572;7.838;2023-04-15T11:58:43;24.60;55.10
14192;DHT22;7177;48.572;7.838;2023-04-15T12:01:10;24.00;56.50
14192;DHT22;7177;48.572;7.838;2023-04-15T12:03:41;23.30;56.60
14192;DHT22;7177;48.572;7.838;2023-04-15T12:06:17;23.40;54.70
14192;DHT22;7177;48.572;7.838;2023-04-15T12:09:13;23.80;55.90
14192;DHT22;7177;48.572;7.838;2023-04-15T12:11:50;23.60;51.80
14192;DHT22;7177;48.572;7.838;2023-04-15T12:14:24;23.10;52.30
14192;DHT22;7177;48.572;7.838;2023-04-15T12:16:51;22.80;49.30
14192;DHT22;7177;48.572;7.838;2023-04-15T12:19:26;22.40;52.10
14192;DHT22;7177;48.572;7.838;2023-04-15T12:21:56;21.80;53.00
14192;DHT22;7177;48.572;7.838;2023-04-15T12:24:23;21.30;54.30
14192;DHT22;7177;48.572;7.838;2023-04-15T12:26:53;21.40;49.90
14192;DHT22;7177;48.572;7.838;2023-04-15T12:29:23;21.90;47.20
14192;DHT22;7177;48.572;7.838;2023-04-15T12:31:51;22.40;48.90
14192;DHT22;7177;48.572;7.838;2023-04-15T12:34:31;22.20;48.00
14192;DHT22;7177;48.572;7.838;2023-04-15T12:36:59;22.30;48.80
14192;DHT22;7177;48.572;7.838;2023-04-15T12:39:30;22.10;47.80
14192;DHT22;7177;48.572;7.838;2023-04-15T12:41:57;21.90;46.40
14192;DHT22;7177;48.572;7.838;2023-04-15T12:44:23;21.80;47.40
14192;DHT22;7177;48.572;7.838;2023-04-15T12:46:52;21.40;48.40
14192;DHT22;7177;48.572;7.838;2023-04-15T12:49:18;21.00;48.40
14192;DHT22;7177;48.572;7.838;2023-04-15T12:51:48;20.40;49.90
14192;DHT22;7177;48.572;7.838;2023-04-15T12:54:15;20.30;50.80
14192;DHT22;7177;48.572;7.838;2023-04-15T12:56:41;20.90;52.20
14192;DHT22;7177;48.572;7.838;2023-04-15T12:59:07;21.60;50.90
14192;DHT22;7177;48.572;7.838;2023-04-15T13:01:33;22.20;50.00
14192;DHT22;7177;48.572;7.838;2023-04-15T13:03:58;22.30;49.00
14192;DHT22;7177;48.572;7.838;2023-04-15T13:06:24;22.20;50.10
14192;DHT22;7177;48.572;7.838;2023-04-15T13:08:50;21.90;48.70
14192;DHT22;7177;48.572;7.838;2023-04-15T13:11:15;21.40;51.10
14192;DHT22;7177;48.572;7.838;2023-04-15T13:13:41;21.00;51.50
14192;DHT22;7177;48.572;7.838;2023-04-15T13:16:07;20.70;51.30
14192;DHT22;7177;48.572;7.838;2023-04-15T13:18:32;20.60;52.30
14192;DHT22;7177;48.572;7.838;2023-04-15T13:20:59;20.30;52.00
14192;DHT22;7177;48.572;7.838;2023-04-15T13:23:25;20.40;53.20
14192;DHT22;7177;48.572;7.838;2023-04-15T13:25:50;20.30;52.10
14192;DHT22;7177;48.572;7.838;2023-04-15T13:28:16;20.50;52.40
14192;DHT22;7177;48.572;7.838;2023-04-15T13:30:42;20.70;54.70
14192;DHT22;7177;48.572;7.838;2023-04-15T13:33:08;20.50;53.40
14192;DHT22;7177;48.572;7.838;2023-04-15T13:35:34;20.60;52.80
14192;DHT22;7177;48.572;7.838;2023-04-15T13:38:00;20.60;54.30
14192;DHT22;7177;48.572;7.838;2023-04-15T13:40:25;20.60;54.50
14192;DHT22;7177;48.572;7.838;2023-04-15T13:42:51;20.60;57.20
14192;DHT22;7177;48.572;7.838;2023-04-15T13:45:17;21.00;57.00
14192;DHT22;7177;48.572;7.838;2023-04-15T13:47:43;21.40;56.00
14192;DHT22;7177;48.572;7.838;2023-04-15T13:50:09;21.80;57.20
14192;DHT22;7177;48.572;7.838;2023-04-15T13:52:35;21.60;55.70
14192;DHT22;7177;48.572;7.838;2023-04-15T13:55:02;21.00;57.10
14192;DHT22;7177;48.572;7.838;2023-04-15T13:57:27;20.60;55.90
14192;DHT22;7177;48.572;7.838;2023-04-15T13:59:53;20.40;58.60
14192;DHT22;7177;48.572;7.838;2023-04-15T14:02:20;20.30;59.00
14192;DHT22;7177;48.572;7.838;2023-04-15T14:04:46;20.10;58.70
14192;DHT22;7177;48.572;7.838;2023-04-15T14:07:11;19.80;58.90
14192;DHT22;7177;48.572;7.838;2023-04-15T14:09:37;19.40;62.40
14192;DHT22;7177;48.572;7.838;2023-04-15T14:12:03;19.10;64.90
14192;DHT22;7177;48.572;7.838;2023-04-15T14:14:28;19.10;63.20
14192;DHT22;7177;48.572;7.838;2023-04-15T14:16:54;19.00;64.40
14192;DHT22;7177;48.572;7.838;2023-04-15T14:19:20;19.00;61.90
14192;DHT22;7177;48.572;7.838;2023-04-15T14:21:46;18.90;64.10
14192;DHT22;7177;48.572;7.838;2023-04-15T14:24:11;19.00;67.40
14192;DHT22;7177;48.572;7.838;2023-04-15T14:26:37;19.10;64.70
14192;DHT22;7177;48.572;7.838;2023-04-15T14:29:02;19.30;65.80
14192;DHT22;7177;48.572;7.838;2023-04-15T14:31:28;19.40;65.40
14192;DHT22;7177;48.572;7.838;2023-04-15T14:33:53;19.50;62.50
14192;DHT22;7177;48.572;7.838;2023-04-15T14:36:19;19.50;66.20
14192;DHT22;7177;48.572;7.838;2023-04-15T14:38:45;19.40;62.80
14192;DHT22;7177;48.572;7.838;2023-04-15T14:41:10;19.20;63.60
14192;DHT22;7177;48.572;7.838;2023-04-15T14:43:36;19.10;64.30
14192;DHT22;7177;48.572;7.838;2023-04-15T14:46:02;18.80;69.90
14192;DHT22;7177;48.572;7.838;2023-04-15T14:48:28;18.60;71.00
14192;DHT22;7177;48.572;7.838;2023-04-15T14:50:55;18.60;68.50
14192;DHT22;7177;48.572;7.838;2023-04-15T14:53:20;18.70;67.40
14192;DHT22;7177;48.572;7.838;2023-04-15T14:55:46;18.60;66.70
14192;DHT22;7177;48.572;7.838;2023-04-15T14:58:11;18.50;68.10
14192;DHT22;7177;48.572;7.838;2023-04-15T15:00:38;18.50;65.20
14192;DHT22;7177;48.572;7.838;2023-04-15T15:03:07;18.60;65.40
14192;DHT22;7177;48.572;7.838;2023-04-15T15:05:40;18.60;70.00
14192;DHT22;7177;48.572;7.838;2023-04-15T15:08:07;18.60;69.80
14192;DHT22;7177;48.572;7.838;2023-04-15T15:10:33;18.50;69.60
14192;DHT22;7177;48.572;7.838;2023-04-15T15:13:00;18.50;71.00
14192;DHT22;7177;48.572;7.838;2023-04-15T15:15:26;18.40;73.50
14192;DHT22;7177;48.572;7.838;2023-04-15T15:17:52;18.30;73.20
14192;DHT22;7177;48.572;7.838;2023-04-15T15:20:18;18.20;71.20
14192;DHT22;7177;48.572;7.838;2023-04-15T15:22:43;18.00;73.10
14192;DHT22;7177;48.572;7.838;2023-04-15T15:25:09;18.00;74.10
14192;DHT22;7177;48.572;7.838;2023-04-15T15:27:35;18.00;76.00
14192;DHT22;7177;48.572;7.838;2023-04-15T15:30:00;18.10;73.70
14192;DHT22;7177;48.572;7.838;2023-04-15T15:32:26;18.00;72.80
14192;DHT22;7177;48.572;7.838;2023-04-15T15:34:51;18.00;71.70
14192;DHT22;7177;48.572;7.838;2023-04-15T15:37:17;17.90;65.10
14192;DHT22;7177;48.572;7.838;2023-04-15T15:39:43;17.80;67.50
14192;DHT22;7177;48.572;7.838;2023-04-15T15:42:08;17.80;64.70
14192;DHT22;7177;48.572;7.838;2023-04-15T15:44:34;17.70;63.70
14192;DHT22;7177;48.572;7.838;2023-04-15T15:47:03;17.70;62.80
14192;DHT22;7177;48.572;7.838;2023-04-15T15:49:29;17.50;60.90
14192;DHT22;7177;48.572;7.838;2023-04-15T15:51:55;17.20;58.30
14192;DHT22;7177;48.572;7.838;2023-04-15T15:54:21;17.00;59.10
14192;DHT22;7177;48.572;7.838;2023-04-15T15:56:46;16.80;58.70
14192;DHT22;7177;48.572;7.838;2023-04-15T15:59:12;16.60;60.00
14192;DHT22;7177;48.572;7.838;2023-04-15T16:01:37;16.50;61.60
14192;DHT22;7177;48.572;7.838;2023-04-15T16:04:03;16.50;62.40
14192;DHT22;7177;48.572;7.838;2023-04-15T16:06:29;16.40;58.70
14192;DHT22;7177;48.572;7.838;2023-04-15T16:08:55;16.30;58.20